createdAt,value
2022-10-28T00:03:23.478Z,16.02
2022-10-28T00:08:26.990Z,17.38
2022-10-28T00:13:30.564Z,16.13
2022-10-28T00:18:35.481Z,16.95
2022-10-28T00:23:39.140Z,15.75
2022-10-28T00:28:44.133Z,16.58
2022-10-28T00:33:49.041Z,16.63
2022-10-28T00:38:54.393Z,16.60
2022-10-28T00:43:59.927Z,16.90
2022-10-28T00:49:07.582Z,17.73
2022-10-28T00:54:12.334Z,17.65
2022-10-28T00:59:19.993Z,17.15
2022-10-28T01:04:25.041Z,16.60
2022-10-28T01:09:28.394Z,15.90
2022-10-28T01:14:47.812Z,15.95
2022-10-28T01:20:36.215Z,15.27
2022-10-28T01:26:16.857Z,15.35
2022-10-28T01:31:39.930Z,15.32
2022-10-28T01:36:55.888Z,15.88
2022-10-28T01:42:05.061Z,14.75
2022-10-28T01:47:14.055Z,14.63
2022-10-28T01:52:22.301Z,15.32
2022-10-28T01:57:29.102Z,14.10
2022-10-28T02:02:37.196Z,14.02
2022-10-28T02:07:40.657Z,14.38
2022-10-28T02:12:48.950Z,13.43
2022-10-28T02:18:07.685Z,13.00
2022-10-28T02:23:21.605Z,13.77
2022-10-28T02:28:33.510Z,14.30
2022-10-28T02:33:41.900Z,14.43
2022-10-28T02:38:48.960Z,14.15
2022-10-28T02:44:00.360Z,14.25
2022-10-28T02:49:09.067Z,14.50
2022-10-28T02:54:15.486Z,13.43
2022-10-28T02:59:18.826Z,14.15
2022-10-28T03:04:23.658Z,14.07
2022-10-28T03:09:27.258Z,14.75
2022-10-28T03:14:30.527Z,14.13
2022-10-28T03:19:35.334Z,14.60
2022-10-28T03:24:38.874Z,14.30
2022-10-28T03:29:45.695Z,13.40
2022-10-28T03:34:50.958Z,13.93
2022-10-28T03:39:54.385Z,13.70
2022-10-28T03:44:57.864Z,14.48
2022-10-28T03:50:02.890Z,13.65
2022-10-28T03:55:06.978Z,12.77
2022-10-28T04:00:11.374Z,13.52
2022-10-28T04:05:16.353Z,13.05
2022-10-28T04:10:19.674Z,13.02
2022-10-28T04:15:23.182Z,12.82
2022-10-28T04:20:28.372Z,13.07
2022-10-28T04:25:31.668Z,12.25
2022-10-28T04:30:35.132Z,14.15
2022-10-28T04:35:42.862Z,13.80
2022-10-28T04:40:48.376Z,14.07
2022-10-28T04:45:51.639Z,13.48
2022-10-28T04:50:58.622Z,13.60
2022-10-28T04:56:02.461Z,12.10
2022-10-28T05:01:09.354Z,12.63
2022-10-28T05:06:14.416Z,12.77
2022-10-28T05:11:17.871Z,14.20
2022-10-28T05:16:21.233Z,12.80
2022-10-28T05:21:26.076Z,13.18
2022-10-28T05:26:29.644Z,13.13
2022-10-28T05:31:33.408Z,13.63
2022-10-28T05:36:38.635Z,13.13
2022-10-28T05:41:41.986Z,14.43
2022-10-28T05:46:45.331Z,15.73
2022-10-28T05:51:50.881Z,14.07
2022-10-28T05:56:54.497Z,13.57
2022-10-28T06:01:58.160Z,13.80
2022-10-28T06:07:02.983Z,15.40
2022-10-28T06:12:06.863Z,14.95
2022-10-28T06:17:10.480Z,13.98
2022-10-28T06:22:15.135Z,14.65
2022-10-28T06:27:19.119Z,16.33
2022-10-28T06:32:22.685Z,15.00
2022-10-28T06:37:27.378Z,15.65
2022-10-28T06:42:30.728Z,16.15
2022-10-28T06:47:39.068Z,14.30
2022-10-28T06:57:55.345Z,14.55
2022-10-28T07:03:00.239Z,16.90
2022-10-28T07:08:05.740Z,14.30
2022-10-28T07:13:09.259Z,14.68
2022-10-28T07:18:13.038Z,13.98
2022-10-28T07:23:17.918Z,12.63
2022-10-28T07:28:21.611Z,12.70
2022-10-28T07:33:24.919Z,12.80
2022-10-28T07:38:32.147Z,12.85
2022-10-28T08:39:05.728Z,7.70
2022-10-28T08:44:50.975Z,8.20
2022-10-28T08:49:58.521Z,8.32
2022-10-28T08:55:07.550Z,5.88
2022-10-28T09:00:21.218Z,4.07
2022-10-28T09:05:26.194Z,3.88
2022-10-28T09:10:57.960Z,3.63
2022-10-28T09:16:08.567Z,3.67
2022-10-28T09:21:19.479Z,3.60
2022-10-28T09:26:41.641Z,2.97
2022-10-28T09:31:49.348Z,3.30
2022-10-28T09:37:16.171Z,3.67
2022-10-28T09:42:28.894Z,3.75
2022-10-28T09:47:36.958Z,4.10
2022-10-28T09:52:51.006Z,3.47
2022-10-28T09:58:14.973Z,2.58
2022-10-28T10:03:18.975Z,2.75
2022-10-28T10:08:23.779Z,2.05
2022-10-28T10:13:30.561Z,3.00
2022-10-28T10:18:34.301Z,2.72
2022-10-28T10:28:47.791Z,3.08
2022-10-28T10:33:52.982Z,2.20
2022-10-28T10:38:57.801Z,2.30
2022-10-28T10:44:02.976Z,2.15
2022-10-28T10:49:24.829Z,2.58
2022-10-28T10:54:57.633Z,2.10
2022-10-28T11:00:23.955Z,2.33
2022-10-28T11:05:35.618Z,2.58
2022-10-28T11:11:14.666Z,2.42
2022-10-28T11:16:21.945Z,2.70
2022-10-28T11:21:47.910Z,1.88
2022-10-28T11:27:01.348Z,2.13
2022-10-28T11:32:45.166Z,2.10
2022-10-28T11:38:16.555Z,1.90
2022-10-28T11:43:29.171Z,2.38
2022-10-28T11:48:46.190Z,2.17
2022-10-28T11:54:02.871Z,2.25
2022-10-28T11:59:35.992Z,2.38
2022-10-28T12:04:51.716Z,2.10
2022-10-28T12:10:11.321Z,2.00
2022-10-28T12:15:22.972Z,2.22
2022-10-28T12:20:32.992Z,2.65
2022-10-28T12:25:41.636Z,1.90
2022-10-28T12:30:47.337Z,1.70
2022-10-28T12:35:57.900Z,2.03
2022-10-28T12:41:08.093Z,2.60
2022-10-28T12:46:21.420Z,2.65
2022-10-28T12:51:31.863Z,1.95
2022-10-28T12:57:00.683Z,1.90
2022-10-28T13:02:05.633Z,1.85
2022-10-28T13:07:43.435Z,1.65
2022-10-28T13:13:13.409Z,1.95
2022-10-28T13:18:59.327Z,2.20
2022-10-28T13:24:28.838Z,2.00
2022-10-28T13:29:52.926Z,1.98
2022-10-28T13:35:17.296Z,1.67
2022-10-28T13:41:03.768Z,2.10
2022-10-28T13:46:07.244Z,2.05
2022-10-28T13:51:32.115Z,2.22
2022-10-28T13:56:56.694Z,2.17
2022-10-28T14:02:39.690Z,1.60
2022-10-28T14:07:55.073Z,1.55
2022-10-28T14:13:02.371Z,1.90
2022-10-28T14:18:15.809Z,1.90
2022-10-28T14:23:51.989Z,2.50
2022-10-28T14:29:29.922Z,2.35
2022-10-28T14:34:44.794Z,2.03
2022-10-28T14:40:02.536Z,1.92
2022-10-28T14:45:35.717Z,1.98
2022-10-28T14:50:42.133Z,2.38
2022-10-28T14:56:07.820Z,2.60
2022-10-28T15:01:24.127Z,3.45
2022-10-28T15:06:39.375Z,3.17
2022-10-28T15:11:45.189Z,2.50
2022-10-28T15:16:50.658Z,2.95
2022-10-28T15:22:05.912Z,3.05
2022-10-28T15:27:30.748Z,3.83
2022-10-28T15:32:36.400Z,3.70
2022-10-28T15:37:39.920Z,3.05
2022-10-28T15:42:50.477Z,3.05
2022-10-28T15:47:57.119Z,3.63
2022-10-28T15:53:41.206Z,3.83
2022-10-28T15:58:46.026Z,3.30
2022-10-28T16:03:50.656Z,4.50
2022-10-28T16:09:02.797Z,4.10
2022-10-28T16:14:36.788Z,3.13
2022-10-28T16:19:44.931Z,5.13
2022-10-28T16:24:54.850Z,4.93
2022-10-28T16:29:59.276Z,5.65
2022-10-28T16:35:05.012Z,5.65
2022-10-28T16:40:24.890Z,5.60
2022-10-28T16:45:51.679Z,5.10
2022-10-28T16:50:58.761Z,5.90
2022-10-28T16:56:02.829Z,4.78
2022-10-28T17:01:06.860Z,5.07
2022-10-28T17:06:11.767Z,4.90
2022-10-28T17:11:34.971Z,6.97
2022-10-28T17:16:56.511Z,7.47
2022-10-28T17:22:02.048Z,6.63
2022-10-28T17:27:26.118Z,7.25
2022-10-28T17:32:29.869Z,7.13
2022-10-28T17:37:35.049Z,6.88
2022-10-28T17:42:39.033Z,6.20
2022-10-28T17:47:42.376Z,5.90
2022-10-28T17:52:47.037Z,7.10
2022-10-28T17:57:50.325Z,7.53
2022-10-28T18:02:57.294Z,7.68
2022-10-28T18:08:02.003Z,7.75
2022-10-28T18:13:05.376Z,7.25
2022-10-28T18:18:28.186Z,7.07
2022-10-28T18:23:32.931Z,7.15
2022-10-28T18:28:37.922Z,7.63
2022-10-28T18:33:42.043Z,7.60
2022-10-28T18:38:46.746Z,10.32
2022-10-28T18:49:14.424Z,10.52
2022-10-28T18:54:19.147Z,10.60
2022-10-28T19:00:05.058Z,8.88
2022-10-28T19:10:08.936Z,7.28
2022-10-28T19:15:12.324Z,6.45
2022-10-28T19:20:15.865Z,7.63
2022-10-28T19:25:20.560Z,7.55
2022-10-28T19:30:23.838Z,10.38
2022-10-28T19:35:27.467Z,9.68
2022-10-28T19:40:32.399Z,9.07
2022-10-28T19:45:35.671Z,9.13
2022-10-28T19:50:38.990Z,9.95
2022-10-28T19:55:43.660Z,10.27
2022-10-28T20:00:46.969Z,10.57
2022-10-28T20:05:50.287Z,10.23
2022-10-28T20:10:59.931Z,9.02
2022-10-28T20:16:05.556Z,10.45
2022-10-28T20:21:30.075Z,9.73
2022-10-28T20:26:36.837Z,10.18
2022-10-28T20:31:40.165Z,11.05
2022-10-28T20:36:45.029Z,10.73
2022-10-28T20:41:51.152Z,10.75
2022-10-28T20:46:55.421Z,9.60
2022-10-28T20:51:58.803Z,9.23
2022-10-28T20:57:21.608Z,9.13
2022-10-28T21:02:25.382Z,9.85
2022-10-28T21:07:28.794Z,10.20
2022-10-28T21:12:33.704Z,8.77
2022-10-28T21:17:55.535Z,10.13
2022-10-28T21:23:00.708Z,9.85
2022-10-28T21:28:05.745Z,9.18
2022-10-28T21:38:31.509Z,8.40
2022-10-28T21:43:55.023Z,7.68
2022-10-28T21:48:58.403Z,8.32
2022-10-28T21:54:02.204Z,7.57
2022-10-28T21:59:07.034Z,6.85
2022-10-28T22:04:10.396Z,8.35
2022-10-28T22:09:34.925Z,7.25
2022-10-28T22:14:42.053Z,9.02
2022-10-28T22:19:45.710Z,7.47
2022-10-28T22:24:49.408Z,6.30
2022-10-28T22:29:54.378Z,7.20
2022-10-28T22:34:57.668Z,7.68
2022-10-28T22:40:00.975Z,7.80
2022-10-28T22:45:23.892Z,6.97
2022-10-28T22:50:27.238Z,6.30
2022-10-28T22:55:30.521Z,7.43
2022-10-28T23:00:35.189Z,9.35
2022-10-28T23:05:56.830Z,8.85
2022-10-28T23:11:01.174Z,10.00
2022-10-28T23:16:07.712Z,8.65
2022-10-28T23:21:12.846Z,7.53
2022-10-28T23:26:16.960Z,7.72
2022-10-28T23:31:40.102Z,7.32
2022-10-28T23:36:43.402Z,7.80
2022-10-28T23:42:05.256Z,8.27
2022-10-28T23:47:28.043Z,7.22
2022-10-28T23:52:31.378Z,7.80
2022-10-28T23:57:34.654Z,6.95
